עמוד ראשי
תמונות לווין תחזית 15-יוםאקליםתחזית ים סופות טרופיות ברק שדות תעופהשאלות נפוצות עלון אודות
מזג אוויר : אירופה אפריקה אמריקה הצפונית אמריקה הדרומית אסיה אוסטרליה-אוקיאניה אחר
שפות איש קשר

שטוטגרט, גרמניה

Echterdingen

קו רוחב: 48-41N, קו אורך: 009-13E, גובה: 396 m


METAR: EDDS 202320Z VRB01KT CAVOK 08/04 Q1005
short-TAF: מיושן (47830 שעות)
long-TAF: EDDS 201700Z 2018/2118 09005KT 9999 FEW040 PROB30 TEMPO 2110/2118 SHRA SCT030CB BECMG 2110/2113 VRB03KT

זמן: 01:26 (23:26 UTC)

תצפית מזג אוויר נוכחית

הדו"ח נערך לפני 6 דקות, בשעה 23:20 UTC  
רוח 01 קשר רוח עם כיוונים משתנים
טמפרטורת 8°C
לחות 76%
לחץ 1005 hPa
ראות 10 km או יותר
ללא עננים שבסיסם נמוך מ 1500 רגל או קומולונימבוס

שינוי יחידות

תחזית

הדו"ח נערך לפני 5 שעות ו 59 דקות, בשעה 17:27 UTC  
תחזית בתוקף מ 20 ב 18 UTC עד 21 ב 18 UTC
רוח 05 קשר מכיוון מזרח
ראות 10 km או יותר
מעט עננים בגובה 4000 ft
הסתברות 30% :
זמנית מ -
21 ב 10 UTC עד 21 ב 18 UTC
עננים פזורים בגובה 3000 ft , קומולונימבוס.
ממטרי גשם
יעשה מ
21 ב 10 UTC עד 21 ב 13 UTC
רוח 03 קשר רוח עם כיוונים משתנים
המידע באתר זה מותנה של תניית פטור
מזג אוויר : אירופה אפריקה אמריקה הצפונית אמריקה הדרומית אסיה אוסטרליה-אוקיאניה אחר
תמונות לווין תחזית 15-יוםאקליםתחזית ים סופות טרופיות ברק שדות תעופהשאלות נפוצות שפות איש קשר עלון אודות